createdAt,value
2024-01-05T00:01:05.763Z,95517.47
2024-01-05T00:03:34.286Z,95591.19
2024-01-05T00:06:04.136Z,95538.16
2024-01-05T00:08:32.631Z,95559.75
2024-01-05T00:11:01.174Z,95545.81
2024-01-05T00:13:29.968Z,95555.94
2024-01-05T00:15:58.236Z,95553.28
2024-01-05T00:18:26.868Z,95543.69
2024-01-05T00:20:56.123Z,95556.22
2024-01-05T00:23:25.736Z,95508.03
2024-01-05T00:25:56.103Z,95495.19
2024-01-05T00:28:24.568Z,95540.09
2024-01-05T00:30:53.115Z,95526.66
2024-01-05T00:33:21.560Z,95529.69
2024-01-05T00:35:50.130Z,95477.97
2024-01-05T00:38:18.646Z,95566.03
2024-01-05T00:40:48.378Z,95552.06
2024-01-05T00:43:16.795Z,95560.56
2024-01-05T00:45:45.313Z,95547.94
2024-01-05T00:48:13.794Z,95502.88
2024-01-05T00:50:42.471Z,95553.41
2024-01-05T00:53:10.831Z,95500.41
2024-01-05T00:55:39.402Z,95555.13
2024-01-05T00:58:09.092Z,95492.00
2024-01-05T01:00:37.718Z,95494.50
2024-01-05T01:03:06.580Z,95469.06
2024-01-05T01:05:43.821Z,95458.19
2024-01-05T01:08:16.528Z,95477.09
2024-01-05T01:10:45.033Z,95370.94
2024-01-05T01:13:14.759Z,95489.41
2024-01-05T01:15:43.106Z,95494.97
2024-01-05T01:18:11.706Z,95480.19
2024-01-05T01:20:40.276Z,95541.34
2024-01-05T01:23:08.509Z,95471.72
2024-01-05T01:25:37.066Z,95453.88
2024-01-05T01:28:06.136Z,95433.81
2024-01-05T01:30:35.868Z,95486.72
2024-01-05T01:33:05.853Z,95467.34
2024-01-05T01:35:34.207Z,95441.41
2024-01-05T01:38:02.819Z,95454.47
2024-01-05T01:40:31.226Z,95469.69
2024-01-05T01:43:00.054Z,95443.72
2024-01-05T01:45:28.482Z,95468.69
2024-01-05T01:47:58.789Z,95427.63
2024-01-05T01:50:27.461Z,95479.59
2024-01-05T01:52:55.786Z,95127.03
2024-01-05T01:55:24.528Z,95443.41
2024-01-05T01:57:52.964Z,95505.28
2024-01-05T02:00:22.488Z,95396.88
2024-01-05T02:02:51.007Z,95428.78
2024-01-05T02:05:21.157Z,95496.22
2024-01-05T02:07:50.400Z,95497.44
2024-01-05T02:10:19.510Z,95437.25
2024-01-05T02:12:47.780Z,95458.84
2024-01-05T02:15:16.306Z,95468.97
2024-01-05T02:17:44.795Z,95472.53
2024-01-05T02:20:13.242Z,95459.06
2024-01-05T02:22:49.905Z,95410.31
2024-01-05T02:25:19.732Z,95491.94
2024-01-05T02:27:48.454Z,95443.06
2024-01-05T02:30:21.597Z,95420.81
2024-01-05T02:32:50.078Z,95442.81
2024-01-05T02:35:18.383Z,95422.53
2024-01-05T02:37:46.966Z,95419.97
2024-01-05T02:40:15.310Z,95418.31
2024-01-05T02:42:45.122Z,95402.72
2024-01-05T02:45:13.527Z,95412.31
2024-01-05T02:47:42.041Z,95437.41
2024-01-05T02:50:11.520Z,95378.06
2024-01-05T02:52:39.893Z,95360.00
2024-01-05T02:55:09.353Z,95334.75
2024-01-05T02:57:37.824Z,95342.88
2024-01-05T03:00:09.314Z,95368.03
2024-01-05T03:02:37.990Z,95299.97
2024-01-05T03:05:07.703Z,95281.47
2024-01-05T03:07:37.446Z,95275.84
2024-01-05T03:10:06.480Z,95259.88
2024-01-05T03:12:34.925Z,95358.47
2024-01-05T03:15:03.585Z,95321.66
2024-01-05T03:17:33.315Z,95434.78
2024-01-05T03:20:02.033Z,95366.56
2024-01-05T03:22:32.066Z,95335.44
2024-01-05T03:25:00.898Z,95344.81
2024-01-05T03:27:29.135Z,95359.97
2024-01-05T03:29:58.567Z,95368.81
2024-01-05T03:32:26.977Z,95339.47
2024-01-05T03:34:56.654Z,95338.78
2024-01-05T03:37:24.932Z,95342.91
2024-01-05T03:39:53.598Z,95331.81
2024-01-05T03:42:21.874Z,95385.06
2024-01-05T03:44:50.346Z,95347.28
2024-01-05T03:47:18.616Z,95292.53
2024-01-05T03:49:47.191Z,95304.03
2024-01-05T03:52:17.063Z,95285.19
2024-01-05T03:54:45.351Z,95292.19
2024-01-05T03:57:13.827Z,95294.19
2024-01-05T03:59:44.155Z,95343.47
2024-01-05T04:02:12.954Z,95334.66
2024-01-05T04:04:41.854Z,95359.19
2024-01-05T04:07:10.565Z,95285.50
2024-01-05T04:09:40.493Z,95304.56
2024-01-05T04:12:09.052Z,95282.28
2024-01-05T04:14:37.759Z,95253.50
2024-01-05T04:17:06.325Z,95313.84
2024-01-05T04:19:34.943Z,95281.03
2024-01-05T04:22:05.324Z,95346.31
2024-01-05T04:24:33.751Z,95248.75
2024-01-05T04:27:03.987Z,95283.78
2024-01-05T04:29:32.376Z,95325.19
2024-01-05T04:32:00.733Z,95303.59
2024-01-05T04:34:29.312Z,95270.88
2024-01-05T04:36:57.895Z,95243.38
2024-01-05T04:39:26.322Z,95206.00
2024-01-05T04:41:54.787Z,95257.28
2024-01-05T04:44:24.467Z,95294.09
2024-01-05T04:46:52.703Z,95275.59
2024-01-05T04:49:21.502Z,95285.16
2024-01-05T04:51:50.304Z,95236.59
2024-01-05T04:54:19.124Z,95175.97
2024-01-05T04:56:47.472Z,95259.50
2024-01-05T04:59:15.879Z,95222.13
2024-01-05T05:01:45.792Z,95056.63
2024-01-05T05:04:19.055Z,95242.88
2024-01-05T05:06:48.044Z,95299.91
2024-01-05T05:09:16.846Z,95282.78
2024-01-05T05:11:45.344Z,95243.38
2024-01-05T05:14:14.286Z,95294.00
2024-01-05T05:16:42.587Z,95296.72
2024-01-05T05:19:12.734Z,95251.03
2024-01-05T05:21:41.314Z,95262.97
2024-01-05T05:24:09.854Z,95281.53
2024-01-05T05:26:38.210Z,95269.56
2024-01-05T05:29:06.686Z,95346.75
2024-01-05T05:31:35.038Z,95157.66
2024-01-05T05:34:04.067Z,95236.44
2024-01-05T05:36:34.078Z,95253.25
2024-01-05T05:39:02.439Z,95267.59
2024-01-05T05:41:31.011Z,95286.09
2024-01-05T05:43:59.607Z,95284.69
2024-01-05T05:46:27.978Z,95298.69
2024-01-05T05:48:56.738Z,95287.59
2024-01-05T05:51:25.227Z,95297.41
2024-01-05T05:54:00.313Z,95181.63
2024-01-05T05:56:28.704Z,95267.53
2024-01-05T05:58:56.982Z,95293.75
2024-01-05T06:01:25.978Z,95260.97
2024-01-05T06:03:54.503Z,95262.56
2024-01-05T06:06:24.904Z,95277.41
2024-01-05T06:08:53.999Z,95277.59
2024-01-05T06:11:28.005Z,95245.22
2024-01-05T06:13:58.364Z,95247.63
2024-01-05T06:16:26.731Z,95278.91
2024-01-05T06:18:55.260Z,95233.38
2024-01-05T06:21:23.710Z,95261.75
2024-01-05T06:23:52.188Z,95267.50
2024-01-05T06:26:20.435Z,95258.78
2024-01-05T06:28:50.042Z,95226.53
2024-01-05T06:31:18.504Z,95298.56
2024-01-05T06:33:47.127Z,95283.69
2024-01-05T06:36:17.619Z,95247.63
2024-01-05T06:38:46.051Z,95279.44
2024-01-05T06:41:14.386Z,95279.47
2024-01-05T06:43:42.834Z,95291.47
2024-01-05T06:46:12.490Z,95339.78
2024-01-05T06:48:40.951Z,95263.88
2024-01-05T06:51:09.423Z,95297.25
2024-01-05T06:53:37.767Z,95263.97
2024-01-05T06:56:07.511Z,95315.41
2024-01-05T06:58:35.724Z,95307.38
2024-01-05T07:01:05.202Z,95311.41
2024-01-05T07:03:36.385Z,95292.06
2024-01-05T07:06:05.101Z,95297.69
2024-01-05T07:08:43.383Z,95280.66
2024-01-05T07:11:12.450Z,95297.25
2024-01-05T07:13:40.893Z,95285.41
2024-01-05T07:16:17.928Z,95300.84
2024-01-05T07:18:48.380Z,95295.22
2024-01-05T07:21:17.591Z,95269.97
2024-01-05T07:23:46.048Z,95317.16
2024-01-05T07:26:14.864Z,95278.81
2024-01-05T07:28:51.030Z,95312.69
2024-01-05T07:31:24.433Z,95289.59
2024-01-05T07:33:57.898Z,95242.16
2024-01-05T07:36:26.409Z,95294.91
2024-01-05T07:38:55.034Z,95308.94
2024-01-05T07:41:23.807Z,95242.81
2024-01-05T07:43:52.041Z,95242.81
2024-01-05T07:46:20.645Z,95264.09
2024-01-05T07:48:48.992Z,95262.59
2024-01-05T07:51:21.678Z,95277.34
2024-01-05T07:53:50.669Z,95296.03
2024-01-05T07:56:19.675Z,95291.00
2024-01-05T07:58:48.391Z,95304.91
2024-01-05T08:01:17.335Z,95277.84
2024-01-05T08:03:46.499Z,95294.78
2024-01-05T08:06:20.685Z,95143.88
2024-01-05T08:08:52.080Z,95271.03
2024-01-05T08:11:20.689Z,95304.84
2024-01-05T08:13:50.332Z,95299.91
2024-01-05T08:16:18.612Z,95337.88
2024-01-05T08:18:48.211Z,95288.88
2024-01-05T08:21:19.280Z,95282.53
2024-01-05T08:23:47.758Z,95290.31
2024-01-05T08:26:19.738Z,95293.03
2024-01-05T08:28:48.862Z,95273.78
2024-01-05T08:31:20.332Z,95277.41
2024-01-05T08:33:48.786Z,95272.97
2024-01-05T08:36:19.329Z,95251.91
2024-01-05T08:38:47.665Z,95298.47
2024-01-05T08:41:16.539Z,95309.44
2024-01-05T08:43:45.518Z,95285.34
2024-01-05T08:46:14.096Z,95311.25
2024-01-05T08:48:45.567Z,95267.66
2024-01-05T08:51:14.285Z,95217.00
2024-01-05T08:53:43.885Z,95279.19
2024-01-05T08:56:12.547Z,95243.31
2024-01-05T08:58:41.247Z,95255.06
2024-01-05T09:01:09.950Z,95258.91
2024-01-05T09:03:38.577Z,95238.56
2024-01-05T09:06:10.764Z,95252.81
2024-01-05T09:08:43.653Z,95260.91
2024-01-05T09:11:12.569Z,95266.94
2024-01-05T09:13:41.375Z,95271.00
2024-01-05T09:16:09.904Z,95282.41
2024-01-05T09:18:40.541Z,95297.00
2024-01-05T09:21:09.096Z,95247.66
2024-01-05T09:23:37.338Z,95286.31
2024-01-05T09:26:15.698Z,95238.34
2024-01-05T09:28:44.088Z,95263.06
2024-01-05T09:31:12.824Z,95255.81
2024-01-05T09:33:42.386Z,95273.88
2024-01-05T09:36:11.008Z,95315.34
2024-01-05T09:38:39.333Z,95283.16
2024-01-05T09:41:15.323Z,95239.34
2024-01-05T09:43:45.810Z,95277.78
2024-01-05T09:46:14.437Z,95299.63
2024-01-05T09:48:47.931Z,95281.09
2024-01-05T09:51:20.047Z,95294.44
2024-01-05T09:53:48.783Z,95286.94
2024-01-05T09:56:18.531Z,95318.72
2024-01-05T09:58:47.545Z,95185.16
2024-01-05T10:01:25.277Z,95289.06
2024-01-05T10:03:57.296Z,95299.69
2024-01-05T10:06:27.010Z,95335.53
2024-01-05T10:08:57.036Z,95298.69
2024-01-05T10:11:35.080Z,95257.63
2024-01-05T10:14:07.878Z,95306.16
2024-01-05T10:16:41.010Z,95327.06
2024-01-05T10:19:14.904Z,95281.88
2024-01-05T10:21:45.404Z,95277.66
2024-01-05T10:24:18.973Z,95278.16
2024-01-05T10:27:03.408Z,95375.19
2024-01-05T10:29:33.997Z,95260.03
2024-01-05T10:32:17.710Z,95285.47
2024-01-05T10:34:49.403Z,95300.97
2024-01-05T10:37:19.209Z,95289.22
2024-01-05T10:39:48.364Z,95260.84
2024-01-05T10:42:21.258Z,95306.19
2024-01-05T10:44:53.415Z,95276.00
2024-01-05T10:47:23.768Z,95227.09
2024-01-05T10:49:54.194Z,95309.94
2024-01-05T10:52:26.522Z,95263.13
2024-01-05T10:54:55.715Z,95271.78
2024-01-05T10:57:25.881Z,95257.53
2024-01-05T10:59:56.716Z,95298.34
2024-01-05T11:02:42.421Z,95270.28
2024-01-05T11:05:13.210Z,95271.72
2024-01-05T11:07:44.810Z,95283.44
2024-01-05T11:10:29.520Z,95265.00
2024-01-05T11:13:17.593Z,95222.66
2024-01-05T11:16:12.048Z,95234.81
2024-01-05T11:19:16.307Z,95280.53
2024-01-05T11:21:52.865Z,95251.59
2024-01-05T11:24:22.556Z,95269.69
2024-01-05T11:26:51.319Z,95235.69
2024-01-05T11:29:52.540Z,95282.91
2024-01-05T11:32:40.717Z,95219.94
2024-01-05T11:35:52.027Z,95256.66
2024-01-05T11:38:32.220Z,95239.19
2024-01-05T11:40:59.649Z,95252.53
2024-01-05T11:43:37.000Z,95206.03
2024-01-05T11:46:07.213Z,95203.75
2024-01-05T11:48:53.896Z,94956.00
2024-01-05T11:51:22.767Z,95183.53
2024-01-05T11:53:51.396Z,95171.81
2024-01-05T11:56:22.826Z,95258.25
2024-01-05T11:58:51.329Z,95219.34
2024-01-05T12:01:22.392Z,95198.84
2024-01-05T12:03:56.708Z,95192.81
2024-01-05T12:06:25.319Z,95225.13
2024-01-05T12:08:53.740Z,95172.44
2024-01-05T12:11:22.560Z,95223.84
2024-01-05T12:13:50.854Z,95197.25
2024-01-05T12:16:25.745Z,95249.22
2024-01-05T12:18:56.345Z,95237.22
2024-01-05T12:24:17.475Z,95184.34
2024-01-05T12:26:47.048Z,95195.34
2024-01-05T12:29:15.577Z,95238.31
2024-01-05T12:31:45.498Z,95208.81
2024-01-05T12:34:16.134Z,95169.84
2024-01-05T12:36:44.557Z,95218.38
2024-01-05T12:39:14.404Z,95203.13
2024-01-05T12:41:47.546Z,95184.72
2024-01-05T12:44:17.839Z,95229.22
2024-01-05T12:46:49.116Z,95217.41
2024-01-05T12:49:22.863Z,95218.13
2024-01-05T12:51:54.837Z,95101.97
2024-01-05T12:54:24.582Z,95196.22
2024-01-05T12:56:55.240Z,95088.84
2024-01-05T12:59:25.177Z,95207.41
2024-01-05T13:02:01.519Z,95181.22
2024-01-05T13:04:39.915Z,95187.19
2024-01-05T13:07:14.734Z,95209.03
2024-01-05T13:09:44.167Z,95225.38
2024-01-05T13:12:12.576Z,95215.28
2024-01-05T13:14:42.270Z,95242.81
2024-01-05T13:17:11.903Z,95158.84
2024-01-05T13:19:40.947Z,95215.38
2024-01-05T13:22:11.511Z,95245.63
2024-01-05T13:24:44.352Z,95238.78
2024-01-05T13:27:15.085Z,95195.50
2024-01-05T13:29:45.627Z,95202.91
2024-01-05T13:32:15.464Z,95153.53
2024-01-05T13:34:44.106Z,95139.78
2024-01-05T13:37:12.864Z,95218.38
2024-01-05T13:39:43.163Z,95134.19
2024-01-05T13:42:13.508Z,95163.00
2024-01-05T13:44:42.237Z,95128.88
2024-01-05T13:47:11.032Z,95179.72
2024-01-05T13:49:41.211Z,95218.91
2024-01-05T13:52:09.520Z,95236.94
2024-01-05T13:54:38.638Z,95205.53
2024-01-05T13:57:07.192Z,95215.47
2024-01-05T13:59:36.134Z,95127.34
2024-01-05T14:02:05.469Z,95077.22
2024-01-05T14:04:34.072Z,95148.47
2024-01-05T14:07:03.735Z,95174.72
2024-01-05T14:09:35.230Z,95229.91
2024-01-05T14:12:04.524Z,95247.09
2024-01-05T14:14:32.856Z,95251.94
2024-01-05T14:17:03.186Z,95213.66
2024-01-05T14:19:32.020Z,95246.31
2024-01-05T14:22:00.597Z,95274.91
2024-01-05T14:24:30.497Z,95205.72
2024-01-05T14:26:59.266Z,95245.84
2024-01-05T14:29:27.682Z,95203.38
2024-01-05T14:32:01.092Z,95256.66
2024-01-05T14:34:29.934Z,95249.13
2024-01-05T14:36:58.343Z,95235.78
2024-01-05T14:39:29.242Z,95216.66
2024-01-05T14:41:58.967Z,95176.91
2024-01-05T14:44:27.722Z,95238.97
2024-01-05T14:46:56.544Z,95177.66
2024-01-05T14:49:25.081Z,95190.09
2024-01-05T14:51:56.596Z,95211.47
2024-01-05T14:54:25.703Z,95225.66
2024-01-05T14:56:54.130Z,95227.50
2024-01-05T14:59:23.992Z,95308.47
2024-01-05T15:01:52.588Z,95255.81
2024-01-05T15:04:21.632Z,95262.78
2024-01-05T15:06:50.200Z,95249.69
2024-01-05T15:09:18.770Z,95256.72
2024-01-05T15:11:47.182Z,95249.34
2024-01-05T15:14:15.386Z,95285.44
2024-01-05T15:16:50.883Z,95231.25
2024-01-05T15:19:19.781Z,95275.75
2024-01-05T15:21:48.355Z,95250.56
2024-01-05T15:24:16.985Z,95232.03
2024-01-05T15:26:46.189Z,95236.56
2024-01-05T15:29:15.074Z,95250.88
2024-01-05T15:31:45.316Z,95259.72
2024-01-05T15:34:13.997Z,95210.38
2024-01-05T15:36:42.461Z,95242.53
2024-01-05T15:39:11.333Z,95243.59
2024-01-05T15:41:40.210Z,95240.75
2024-01-05T15:44:09.869Z,95246.31
2024-01-05T15:46:38.321Z,95277.41
2024-01-05T15:49:08.272Z,95233.94
2024-01-05T15:51:38.018Z,95224.38
2024-01-05T15:54:07.370Z,95249.38
2024-01-05T15:56:37.125Z,95224.72
2024-01-05T15:59:05.623Z,95210.78
2024-01-05T16:01:34.496Z,95230.34
2024-01-05T16:04:03.461Z,95240.00
2024-01-05T16:06:33.156Z,95261.38
2024-01-05T16:09:01.592Z,95253.25
2024-01-05T16:11:31.066Z,95199.97
2024-01-05T16:13:59.336Z,95238.56
2024-01-05T16:16:28.887Z,95160.34
2024-01-05T16:18:57.233Z,95219.88
2024-01-05T16:21:28.627Z,95274.78
2024-01-05T16:24:02.882Z,95187.72
2024-01-05T16:26:31.457Z,95224.91
2024-01-05T16:28:59.744Z,95237.28
2024-01-05T16:31:28.317Z,95308.28
2024-01-05T16:33:57.084Z,95269.66
2024-01-05T16:36:26.960Z,95275.34
2024-01-05T16:38:56.819Z,95301.22
2024-01-05T16:41:25.975Z,95228.72
2024-01-05T16:43:56.607Z,95195.72
2024-01-05T16:46:25.351Z,95244.47
2024-01-05T16:48:54.874Z,95289.59
2024-01-05T16:51:24.321Z,95275.06
2024-01-05T16:53:54.394Z,95256.31
2024-01-05T16:56:28.322Z,95249.78
2024-01-05T16:58:58.243Z,95193.00
2024-01-05T17:01:26.992Z,95197.53
2024-01-05T17:03:59.025Z,95234.97
2024-01-05T17:06:27.808Z,95235.84
2024-01-05T17:08:57.097Z,95176.09
2024-01-05T17:11:30.770Z,95219.81
2024-01-05T17:13:59.209Z,95157.91
2024-01-05T17:16:28.524Z,95201.91
2024-01-05T17:19:00.650Z,95257.41
2024-01-05T17:21:30.190Z,95225.78
2024-01-05T17:23:58.714Z,95224.75
2024-01-05T17:26:28.526Z,95216.94
2024-01-05T17:28:58.129Z,95256.09
2024-01-05T17:31:26.871Z,95251.41
2024-01-05T17:33:55.563Z,95246.50
2024-01-05T17:36:27.919Z,95229.53
2024-01-05T17:38:56.699Z,95220.88
2024-01-05T17:41:26.094Z,95274.56
2024-01-05T17:43:55.746Z,95251.78
2024-01-05T17:46:24.115Z,95268.56
2024-01-05T17:48:52.603Z,95268.09
2024-01-05T17:51:21.186Z,95281.94
2024-01-05T17:53:49.813Z,95218.00
2024-01-05T17:56:27.214Z,95291.56
2024-01-05T17:58:56.891Z,95265.53
2024-01-05T18:01:25.939Z,95269.56
2024-01-05T18:03:54.476Z,95300.88
2024-01-05T18:06:23.086Z,95289.47
2024-01-05T18:08:51.582Z,95224.22
2024-01-05T18:11:24.125Z,95261.25
2024-01-05T18:13:52.392Z,95295.72
2024-01-05T18:16:26.797Z,95297.31
2024-01-05T18:18:55.531Z,95299.63
2024-01-05T18:21:26.356Z,95281.66
2024-01-05T18:23:55.686Z,95263.75
2024-01-05T18:26:25.587Z,95254.31
2024-01-05T18:28:53.983Z,95279.09
2024-01-05T18:31:27.781Z,95229.56
2024-01-05T18:33:56.779Z,95313.03
2024-01-05T18:36:25.713Z,95287.59
2024-01-05T18:38:54.787Z,95164.06
2024-01-05T18:41:24.283Z,95281.91
2024-01-05T18:43:52.571Z,95255.97
2024-01-05T18:46:20.941Z,95243.88
2024-01-05T18:48:50.984Z,95291.53
2024-01-05T18:51:19.684Z,95236.06
2024-01-05T18:53:48.586Z,95312.06
2024-01-05T18:56:16.887Z,95289.88
2024-01-05T18:58:45.781Z,95289.56
2024-01-05T19:01:14.213Z,95302.25
2024-01-05T19:03:42.819Z,95256.47
2024-01-05T19:06:17.552Z,95281.72
2024-01-05T19:08:46.123Z,95290.84
2024-01-05T19:11:14.953Z,95287.75
2024-01-05T19:13:44.745Z,95308.47
2024-01-05T19:16:14.392Z,95260.53
2024-01-05T19:18:42.711Z,95279.06
2024-01-05T19:21:11.536Z,95306.16
2024-01-05T19:23:41.129Z,95315.41
2024-01-05T19:26:09.876Z,95230.56
2024-01-05T19:28:38.261Z,95311.34
2024-01-05T19:31:07.528Z,95284.44
2024-01-05T19:33:37.093Z,95254.66
2024-01-05T19:36:10.057Z,95279.72
2024-01-05T19:38:38.936Z,95301.22
2024-01-05T19:41:10.230Z,95318.19
2024-01-05T19:43:40.522Z,95316.03
2024-01-05T19:46:09.451Z,95263.44
2024-01-05T19:48:40.184Z,95365.88
2024-01-05T19:51:12.997Z,95343.72
2024-01-05T19:53:42.094Z,95278.25
2024-01-05T19:56:13.569Z,95325.03
2024-01-05T19:58:43.761Z,95340.47
2024-01-05T20:01:12.303Z,95325.16
2024-01-05T20:03:40.770Z,95373.09
2024-01-05T20:06:09.407Z,95304.59
2024-01-05T20:08:38.672Z,95291.31
2024-01-05T20:11:11.742Z,95328.59
2024-01-05T20:13:41.512Z,95289.84
2024-01-05T20:16:10.529Z,95324.03
2024-01-05T20:18:39.886Z,95353.50
2024-01-05T20:21:15.566Z,95348.84
2024-01-05T20:23:43.973Z,95308.56
2024-01-05T20:26:19.683Z,95271.50
2024-01-05T20:28:50.993Z,95309.69
2024-01-05T20:31:20.422Z,95323.22
2024-01-05T20:33:49.669Z,95299.13
2024-01-05T20:36:18.535Z,95303.66
2024-01-05T20:38:47.134Z,95306.94
2024-01-05T20:41:15.457Z,95296.34
2024-01-05T20:43:45.401Z,95308.41
2024-01-05T20:46:15.142Z,95340.94
2024-01-05T20:48:43.714Z,95296.94
2024-01-05T20:51:12.180Z,95333.06
2024-01-05T20:53:40.580Z,95332.09
2024-01-05T20:56:09.019Z,95344.44
2024-01-05T20:58:37.667Z,95331.59
2024-01-05T21:01:06.561Z,95270.81
2024-01-05T21:03:39.603Z,95377.94
2024-01-05T21:06:08.561Z,95286.22
2024-01-05T21:08:36.878Z,95276.44
2024-01-05T21:11:07.766Z,95298.91
2024-01-05T21:13:36.025Z,95296.78
2024-01-05T21:16:07.354Z,95230.00
2024-01-05T21:18:37.024Z,95302.19
2024-01-05T21:21:08.827Z,95346.63
2024-01-05T21:23:37.573Z,95354.56
2024-01-05T21:26:06.962Z,95329.31
2024-01-05T21:28:35.489Z,95325.84
2024-01-05T21:31:07.838Z,95220.41
2024-01-05T21:33:37.702Z,95327.09
2024-01-05T21:36:12.265Z,95281.34
2024-01-05T21:38:40.617Z,95371.06
2024-01-05T21:41:09.737Z,95314.84
2024-01-05T21:43:37.951Z,95334.38
2024-01-05T21:46:07.015Z,95321.16
2024-01-05T21:48:35.925Z,95264.53
2024-01-05T21:51:04.641Z,95314.63
2024-01-05T21:53:34.272Z,95257.38
2024-01-05T21:56:02.130Z,95332.25
2024-01-05T21:58:31.769Z,95313.50
2024-01-05T22:01:00.063Z,95305.78
2024-01-05T22:03:28.613Z,95294.31
2024-01-05T22:05:57.421Z,95329.13
2024-01-05T22:08:26.580Z,95315.97
2024-01-05T22:10:57.315Z,95326.66
2024-01-05T22:13:26.157Z,95349.41
2024-01-05T22:15:55.512Z,95272.03
2024-01-05T22:18:24.105Z,95331.66
2024-01-05T22:20:52.476Z,95316.19
2024-01-05T22:23:20.741Z,95355.97
2024-01-05T22:25:50.241Z,95325.66
2024-01-05T22:28:20.049Z,95322.13
2024-01-05T22:30:48.729Z,95307.81
2024-01-05T22:33:18.094Z,95323.50
2024-01-05T22:35:47.830Z,95361.53
2024-01-05T22:38:16.254Z,95331.91
2024-01-05T22:40:45.617Z,95367.44
2024-01-05T22:43:14.282Z,95356.63
2024-01-05T22:45:44.142Z,95345.00
2024-01-05T22:48:13.007Z,95315.56
2024-01-05T22:50:41.437Z,95338.03
2024-01-05T22:53:09.952Z,95343.09
2024-01-05T22:55:38.605Z,95382.25
2024-01-05T22:58:08.376Z,95330.66
2024-01-05T23:00:37.592Z,95335.97
2024-01-05T23:03:07.920Z,95312.56
2024-01-05T23:05:41.007Z,95325.97
2024-01-05T23:08:16.736Z,95357.19
2024-01-05T23:10:47.510Z,95299.56
2024-01-05T23:13:15.809Z,95320.03
2024-01-05T23:15:44.339Z,95325.44
2024-01-05T23:18:15.048Z,95316.81
2024-01-05T23:20:44.375Z,95258.53
2024-01-05T23:23:12.698Z,95351.19
2024-01-05T23:25:41.913Z,95329.00
2024-01-05T23:28:10.171Z,95364.34
2024-01-05T23:30:38.970Z,95328.03
2024-01-05T23:33:07.831Z,95300.59
2024-01-05T23:35:37.500Z,95276.31
2024-01-05T23:38:06.057Z,95293.78
2024-01-05T23:40:34.534Z,95343.16
2024-01-05T23:43:03.275Z,95320.66
2024-01-05T23:45:31.591Z,95278.81
2024-01-05T23:48:00.075Z,95330.09
2024-01-05T23:50:55.508Z,95296.00
2024-01-05T23:53:24.150Z,95262.25
2024-01-05T23:55:52.512Z,95350.22
2024-01-05T23:58:23.037Z,95321.72
